EDW69D LSZH-EGGD
Flight info
| Callsign | EDW69D |
|---|---|
| Flight time | N/A |
| Altitude | 36000 |
| Route | VEBIT T10 TORPA DCT REKLA DCT RLP DCT ROTSI DCT KOTUN DCT NINAL DCT KESAX DCT KUNAV T421 ICTAM |
| Aircraft | A320/M-SDE2E3FGHIJ1RWXY/LB1 |
Departure
| Time | 2026-05-06 09:20 |
|---|---|
| Airport | Zürich Airport (LSZH) |
Arrival
| Time | N/A |
|---|---|
| Airport | Bristol Airport (EGGD) |
| Time | Latitude | Longitude | Altitude | Speed | Heading |
|---|---|---|---|---|---|
| 2026-05-06 08:49 | 47.46054 | 8.55471 | 1405 ft | 0 kts | 6° |
| 2026-05-06 09:11 | 47.46053 | 8.55471 | 1399 ft | 1 kts | 6° |
| 2026-05-06 09:12 | 47.46029 | 8.55468 | 1401 ft | 4 kts | 2° |
| 2026-05-06 09:12 | 47.46002 | 8.55468 | 1401 ft | 4 kts | 353° |
| 2026-05-06 09:12 | 47.45976 | 8.55477 | 1406 ft | 4 kts | 325° |
| 2026-05-06 09:12 | 47.45966 | 8.55496 | 1406 ft | 0 kts | 276° |
| 2026-05-06 09:14 | 47.45966 | 8.55493 | 1402 ft | 2 kts | 276° |
| 2026-05-06 09:14 | 47.45973 | 8.55392 | 1398 ft | 18 kts | 276° |
| 2026-05-06 09:14 | 47.45982 | 8.55197 | 1395 ft | 18 kts | 252° |
| 2026-05-06 09:15 | 47.45901 | 8.55189 | 1402 ft | 11 kts | 119° |
| 2026-05-06 09:15 | 47.45890 | 8.55301 | 1402 ft | 13 kts | 94° |
| 2026-05-06 09:15 | 47.45881 | 8.55416 | 1401 ft | 9 kts | 97° |
| 2026-05-06 09:15 | 47.45875 | 8.55490 | 1407 ft | 10 kts | 96° |
| 2026-05-06 09:16 | 47.45867 | 8.55604 | 1411 ft | 9 kts | 96° |
| 2026-05-06 09:16 | 47.45860 | 8.55706 | 1409 ft | 14 kts | 96° |
| 2026-05-06 09:16 | 47.45847 | 8.55906 | 1413 ft | 25 kts | 95° |
| 2026-05-06 09:16 | 47.45829 | 8.56195 | 1415 ft | 29 kts | 96° |
| 2026-05-06 09:17 | 47.45806 | 8.56481 | 1417 ft | 27 kts | 97° |
| 2026-05-06 09:17 | 47.45786 | 8.56752 | 1422 ft | 26 kts | 96° |
| 2026-05-06 09:17 | 47.45763 | 8.56998 | 1425 ft | 21 kts | 121° |
| 2026-05-06 09:17 | 47.45738 | 8.57029 | 1425 ft | 0 kts | 154° |
| 2026-05-06 09:18 | 47.45737 | 8.57030 | 1425 ft | 0 kts | 154° |
| 2026-05-06 09:18 | 47.45682 | 8.57038 | 1425 ft | 11 kts | 189° |
| 2026-05-06 09:18 | 47.45665 | 8.56957 | 1424 ft | 2 kts | 279° |
| 2026-05-06 09:19 | 47.45666 | 8.56949 | 1424 ft | 5 kts | 279° |
| 2026-05-06 09:19 | 47.45698 | 8.56594 | 1417 ft | 71 kts | 275° |
| 2026-05-06 09:20 | 47.45770 | 8.55539 | 1403 ft | 133 kts | 276° |
| 2026-05-06 09:20 | 47.45867 | 8.53977 | 1629 ft | 160 kts | 276° |
| 2026-05-06 09:20 | 47.45980 | 8.52334 | 2258 ft | 166 kts | 277° |
| 2026-05-06 09:20 | 47.46100 | 8.50603 | 2882 ft | 174 kts | 277° |
| 2026-05-06 09:21 | 47.46214 | 8.48807 | 3469 ft | 175 kts | 270° |
| 2026-05-06 09:21 | 47.45765 | 8.47191 | 4021 ft | 176 kts | 221° |
| 2026-05-06 09:21 | 47.44672 | 8.46386 | 4588 ft | 177 kts | 205° |
| 2026-05-06 09:21 | 47.43673 | 8.45240 | 4852 ft | 194 kts | 232° |
| 2026-05-06 09:22 | 47.42851 | 8.43471 | 5085 ft | 219 kts | 238° |
| 2026-05-06 09:22 | 47.42017 | 8.41484 | 5367 ft | 242 kts | 238° |
| 2026-05-06 09:22 | 47.41059 | 8.39255 | 5799 ft | 262 kts | 237° |
| 2026-05-06 09:22 | 47.40048 | 8.37016 | 6494 ft | 269 kts | 234° |
| 2026-05-06 09:23 | 47.38972 | 8.34730 | 7239 ft | 273 kts | 235° |
| 2026-05-06 09:23 | 47.38073 | 8.32195 | 8037 ft | 277 kts | 243° |
| 2026-05-06 09:23 | 47.37232 | 8.29686 | 8908 ft | 277 kts | 242° |
| 2026-05-06 09:23 | 47.36343 | 8.27151 | 9750 ft | 280 kts | 241° |
| 2026-05-06 09:24 | 47.35418 | 8.24565 | 10271 ft | 295 kts | 241° |
| 2026-05-06 09:24 | 47.34421 | 8.21789 | 10493 ft | 318 kts | 241° |
| 2026-05-06 09:24 | 47.33363 | 8.18839 | 10954 ft | 331 kts | 241° |
| 2026-05-06 09:24 | 47.32281 | 8.15813 | 11631 ft | 336 kts | 242° |
| 2026-05-06 09:25 | 47.31187 | 8.12747 | 12299 ft | 340 kts | 242° |
| 2026-05-06 09:25 | 47.30085 | 8.09646 | 12987 ft | 342 kts | 242° |
| 2026-05-06 09:25 | 47.28974 | 8.06526 | 13664 ft | 345 kts | 242° |
| 2026-05-06 09:25 | 47.28026 | 8.03264 | 14242 ft | 349 kts | 252° |
| 2026-05-06 09:26 | 47.27494 | 7.99755 | 14819 ft | 353 kts | 256° |
| 2026-05-06 09:26 | 47.26927 | 7.96225 | 15396 ft | 356 kts | 255° |
| 2026-05-06 09:26 | 47.26366 | 7.92659 | 15969 ft | 360 kts | 260° |
| 2026-05-06 09:26 | 47.26426 | 7.88955 | 16505 ft | 368 kts | 280° |
| 2026-05-06 09:27 | 47.27331 | 7.85395 | 17063 ft | 375 kts | 293° |
| 2026-05-06 09:27 | 47.28500 | 7.81935 | 17616 ft | 380 kts | 294° |
| 2026-05-06 09:27 | 47.29700 | 7.78449 | 18142 ft | 384 kts | 294° |
| 2026-05-06 09:27 | 47.30919 | 7.74928 | 18611 ft | 387 kts | 294° |
| 2026-05-06 09:28 | 47.31948 | 7.71269 | 19113 ft | 387 kts | 285° |
| 2026-05-06 09:28 | 47.32664 | 7.67441 | 19618 ft | 388 kts | 279° |
| 2026-05-06 09:28 | 47.33202 | 7.63533 | 20134 ft | 390 kts | 277° |
| 2026-05-06 09:28 | 47.33682 | 7.59587 | 20648 ft | 392 kts | 277° |
| 2026-05-06 09:29 | 47.34175 | 7.55619 | 21159 ft | 395 kts | 277° |
| 2026-05-06 09:29 | 47.34714 | 7.51630 | 21667 ft | 398 kts | 278° |
| 2026-05-06 09:29 | 47.35304 | 7.47621 | 22167 ft | 402 kts | 279° |
| 2026-05-06 09:29 | 47.35936 | 7.43571 | 22517 ft | 408 kts | 280° |
| 2026-05-06 09:30 | 47.36593 | 7.39478 | 22917 ft | 413 kts | 280° |
| 2026-05-06 09:30 | 47.37263 | 7.35343 | 23342 ft | 416 kts | 280° |
| 2026-05-06 09:30 | 47.37934 | 7.31166 | 23713 ft | 420 kts | 279° |
| 2026-05-06 09:30 | 47.38599 | 7.26969 | 24109 ft | 421 kts | 279° |
| 2026-05-06 09:31 | 47.39261 | 7.22751 | 24488 ft | 423 kts | 279° |
| 2026-05-06 09:31 | 47.39921 | 7.18516 | 24863 ft | 424 kts | 279° |
| 2026-05-06 09:31 | 47.40577 | 7.14268 | 25216 ft | 425 kts | 278° |
| 2026-05-06 09:31 | 47.41233 | 7.10000 | 25570 ft | 427 kts | 278° |
| 2026-05-06 09:32 | 47.41892 | 7.05710 | 25919 ft | 429 kts | 279° |
| 2026-05-06 09:32 | 47.42552 | 7.01405 | 26248 ft | 432 kts | 279° |
| 2026-05-06 09:32 | 47.43214 | 6.97070 | 26563 ft | 433 kts | 278° |
| 2026-05-06 09:32 | 47.43878 | 6.92716 | 26890 ft | 435 kts | 278° |
| 2026-05-06 09:33 | 47.44547 | 6.88351 | 27208 ft | 437 kts | 278° |
| 2026-05-06 09:33 | 47.45217 | 6.83962 | 27518 ft | 439 kts | 278° |
| 2026-05-06 09:33 | 47.45884 | 6.79559 | 27829 ft | 440 kts | 278° |
| 2026-05-06 09:33 | 47.46548 | 6.75132 | 28134 ft | 442 kts | 278° |
| 2026-05-06 09:34 | 47.47211 | 6.70694 | 28426 ft | 443 kts | 278° |
| 2026-05-06 09:34 | 47.47863 | 6.66231 | 28726 ft | 444 kts | 276° |
| 2026-05-06 09:34 | 47.48246 | 6.61707 | 28930 ft | 445 kts | 272° |
| 2026-05-06 09:34 | 47.48578 | 6.57140 | 29157 ft | 447 kts | 272° |
| 2026-05-06 09:35 | 47.48910 | 6.52559 | 29417 ft | 449 kts | 272° |
| 2026-05-06 09:35 | 47.49243 | 6.47953 | 29667 ft | 451 kts | 272° |
| 2026-05-06 09:35 | 47.49574 | 6.43345 | 29899 ft | 452 kts | 272° |
| 2026-05-06 09:35 | 47.49899 | 6.38715 | 30099 ft | 454 kts | 271° |
| 2026-05-06 09:36 | 47.50222 | 6.34070 | 30297 ft | 455 kts | 271° |
| 2026-05-06 09:36 | 47.50543 | 6.29422 | 30545 ft | 454 kts | 271° |
| 2026-05-06 09:36 | 47.50865 | 6.24789 | 30861 ft | 453 kts | 272° |
| 2026-05-06 09:36 | 47.51189 | 6.20152 | 31060 ft | 454 kts | 272° |
| 2026-05-06 09:37 | 47.51512 | 6.15508 | 31300 ft | 454 kts | 272° |
| 2026-05-06 09:37 | 47.51830 | 6.10871 | 31580 ft | 452 kts | 272° |
| 2026-05-06 09:37 | 47.52144 | 6.06256 | 31880 ft | 451 kts | 272° |
| 2026-05-06 09:37 | 47.52456 | 6.01647 | 32185 ft | 449 kts | 272° |
| 2026-05-06 09:38 | 47.52763 | 5.97061 | 32491 ft | 447 kts | 272° |
| 2026-05-06 09:38 | 47.53080 | 5.92487 | 32801 ft | 446 kts | 275° |
| 2026-05-06 09:38 | 47.53771 | 5.88002 | 33111 ft | 450 kts | 285° |
| 2026-05-06 09:38 | 47.55022 | 5.83736 | 33432 ft | 454 kts | 296° |
| 2026-05-06 09:39 | 47.56807 | 5.79868 | 33662 ft | 458 kts | 308° |
| 2026-05-06 09:39 | 47.58962 | 5.76385 | 33899 ft | 459 kts | 310° |
| 2026-05-06 09:39 | 47.61132 | 5.72921 | 34117 ft | 458 kts | 310° |
| 2026-05-06 09:39 | 47.63291 | 5.69454 | 34338 ft | 458 kts | 309° |
| 2026-05-06 09:40 | 47.65444 | 5.65977 | 34544 ft | 457 kts | 309° |
| 2026-05-06 09:40 | 47.67589 | 5.62497 | 34738 ft | 457 kts | 309° |
| 2026-05-06 09:40 | 47.71873 | 5.55537 | 35093 ft | 457 kts | 309° |
| 2026-05-06 09:41 | 47.74017 | 5.52051 | 35269 ft | 456 kts | 309° |
| 2026-05-06 09:41 | 47.76155 | 5.48572 | 35444 ft | 456 kts | 309° |
| 2026-05-06 09:41 | 47.78296 | 5.45090 | 35609 ft | 456 kts | 310° |
| 2026-05-06 09:41 | 47.80436 | 5.41605 | 35771 ft | 456 kts | 310° |
| 2026-05-06 09:42 | 47.84715 | 5.34628 | 35823 ft | 455 kts | 310° |
| 2026-05-06 09:42 | 47.88977 | 5.27656 | 35825 ft | 455 kts | 310° |
| 2026-05-06 09:43 | 47.93231 | 5.20669 | 35825 ft | 456 kts | 310° |
| 2026-05-06 09:43 | 47.97484 | 5.13659 | 35826 ft | 456 kts | 310° |
| 2026-05-06 09:44 | 48.01739 | 5.06634 | 35848 ft | 456 kts | 310° |
| 2026-05-06 09:44 | 48.05992 | 4.99602 | 35838 ft | 456 kts | 310° |
| 2026-05-06 09:45 | 48.10245 | 4.92553 | 35844 ft | 457 kts | 310° |
| 2026-05-06 09:45 | 48.14491 | 4.85477 | 35837 ft | 457 kts | 310° |
| 2026-05-06 09:46 | 48.18738 | 4.78389 | 35837 ft | 457 kts | 310° |
| 2026-05-06 09:46 | 48.22987 | 4.71297 | 35840 ft | 457 kts | 310° |
| 2026-05-06 09:47 | 48.27204 | 4.64234 | 35851 ft | 457 kts | 310° |
| 2026-05-06 09:47 | 48.31431 | 4.57109 | 35858 ft | 457 kts | 310° |
| 2026-05-06 09:48 | 48.35655 | 4.49976 | 35860 ft | 457 kts | 310° |
| 2026-05-06 09:48 | 48.39879 | 4.42855 | 35870 ft | 456 kts | 310° |
| 2026-05-06 09:49 | 48.44089 | 4.35728 | 35867 ft | 455 kts | 309° |
| 2026-05-06 09:49 | 48.48287 | 4.28583 | 35879 ft | 455 kts | 310° |
| 2026-05-06 09:50 | 48.52473 | 4.21442 | 35877 ft | 454 kts | 310° |
| 2026-05-06 09:50 | 48.56652 | 4.14293 | 35873 ft | 454 kts | 310° |
| 2026-05-06 09:51 | 48.60154 | 4.08304 | 35863 ft | 454 kts | 310° |
| 2026-05-06 09:51 | 48.64324 | 4.01142 | 35860 ft | 454 kts | 309° |
| 2026-05-06 09:52 | 48.68490 | 3.93958 | 35856 ft | 454 kts | 309° |
| 2026-05-06 09:52 | 48.72655 | 3.86768 | 35854 ft | 455 kts | 310° |
| 2026-05-06 09:53 | 48.77066 | 3.79882 | 35855 ft | 456 kts | 314° |
| 2026-05-06 09:53 | 48.81668 | 3.73278 | 35857 ft | 456 kts | 315° |
| 2026-05-06 09:54 | 48.86251 | 3.66628 | 35867 ft | 456 kts | 314° |
| 2026-05-06 09:54 | 48.90769 | 3.59878 | 35866 ft | 455 kts | 314° |
| 2026-05-06 09:55 | 48.95264 | 3.53087 | 35867 ft | 456 kts | 314° |
| 2026-05-06 09:55 | 48.99761 | 3.46299 | 35877 ft | 455 kts | 314° |
| 2026-05-06 09:56 | 49.04263 | 3.39511 | 35883 ft | 455 kts | 313° |
| 2026-05-06 09:56 | 49.08749 | 3.32720 | 35895 ft | 454 kts | 313° |
| 2026-05-06 09:57 | 49.13224 | 3.25931 | 35888 ft | 453 kts | 314° |
| 2026-05-06 09:57 | 49.17690 | 3.19151 | 35887 ft | 452 kts | 314° |
| 2026-05-06 09:58 | 49.22146 | 3.12365 | 35885 ft | 452 kts | 313° |
| 2026-05-06 09:58 | 49.26588 | 3.05569 | 35893 ft | 451 kts | 314° |
| 2026-05-06 09:59 | 49.31019 | 2.98766 | 35894 ft | 451 kts | 313° |